Nearby METAR Reports

(scroll for additional cities)

 

KPSP - Palm Springs, California, USA
Distance from station: WNW 7mi, 11km
Updated: Tue, 07-Apr-2020 7:53am PDT
Mostly Cloudy
Mostly Cloudy
 Wind from N
Wind: N 5 mph , 7 km/h
Temperature: 61°F , 16°C
Dew Point: 45°F , 7°C
Humidity: 55%
Barometer: 30.03 inHg , 1016.9 hPa
Clouds: Mostly Cloudy
Visibility: 10 miles , 16 km
Cloud details: Mostly Cloudy 10000 ft
Mostly Cloudy 12000 ft
2020/04/07 14:53 KPSP 071453Z 36004KT 10SM BKN100 BKN120 16/07 A3003 RMK AO2 SLP169 T01610072 53020
KTRM - Thermal/Palm Spg, California, USA
Distance from station: SE 16mi, 26km
Updated: Tue, 07-Apr-2020 8:52am PDT
Light rain, Overcast
Light rain, Overcast
 Wind from WNW
Wind: WNW 6 mph , 9 km/h
Temperature: 64°F , 18°C
Dew Point: 46°F , 8°C
Humidity: 52%
Barometer: 30.01 inHg , 1016.3 hPa
Summary: Light Rain
Clouds: Overcast
Visibility: 10 miles , 16 km
Cloud details: Overcast 9000 ft
2020/04/07 15:52 KTRM 071552Z AUTO 30005KT 10SM -RA OVC090 18/08 A3001 RMK AO2 RAB03 SLP163 P0000 T01830083
 
KNXP - Twentynine Palms, California, USA
Distance from station: NNE 37mi, 60km
Updated: Tue, 07-Apr-2020 7:56am PDT
Overcast
Overcast
 Wind from NW
Wind: NW 6 mph , 9 km/h
Temperature: 52°F , 11°C
Dew Point: 46°F , 8°C
Humidity: 82%
Barometer: 30.11 inHg , 1019.6 hPa
Clouds: Overcast
Visibility: 10 miles , 16 km
Cloud details: Overcast 4100 ft
2020/04/07 14:56 KNXP 071456Z AUTO 31005KT 10SM OVC041 11/08 A3011 RMK AO2 SLP178 T01060083 53020
KL35 - Big Bear City, California, USA
Distance from station: NW 43mi, 69km
Updated: Tue, 07-Apr-2020 8:35am PDT
Light snow, Overcast
Light snow, Overcast
 Wind from calm
Wind: Calm
Temperature: 32°F , 0°C
Dew Point: 32°F , 0°C
Humidity: 100%
Barometer: 30.05 inHg , 1017.6 hPa
Summary: Light Snow
Clouds: Overcast
Visibility: 1 1/4 miles , 2 km
Cloud details: Overcast 1700 ft
2020/04/07 15:35 KL35 071535Z AUTO 00000KT 1 1/4SM -SN OVC017 00/00 A3005 RMK AO2 P0001
 
KF70 - Murrieta/Temecula, California, USA
Distance from station: WSW 45mi, 73km
Updated: Tue, 07-Apr-2020 8:35am PDT
Overcast
Overcast
 Wind from calm
Wind: Calm
Temperature: 52°F , 11°C
Dew Point: 48°F , 9°C
Humidity: 88%
Barometer: 30.05 inHg , 1017.6 hPa
Clouds: Overcast
Visibility: 10 miles , 16 km
Cloud details: Partly Cloudy 3900 ft
Mostly Cloudy 4700 ft
Overcast 7000 ft
2020/04/07 15:35 KF70 071535Z AUTO 00000KT 10SM SCT039 BKN047 OVC070 11/09 A3005 RMK AO1
KRIV - Riverside/March, California, USA
Distance from station: W 51mi, 82km
Updated: Tue, 07-Apr-2020 8:00am PDT
Mostly Cloudy
Mostly Cloudy
 Wind from calm
Wind: Calm
Temperature: 50°F , 10°C
Dew Point: 48°F , 9°C
Humidity: 94%
Barometer: 30.04 inHg , 1017.3 hPa
Clouds: Mostly Cloudy
Visibility: 10 miles , 16 km
Cloud details: Few Clouds 800 ft
Partly Cloudy 4700 ft
Partly Cloudy 6500 ft
Mostly Cloudy 8000 ft
Mostly Cloudy 9000 ft
2020/04/07 15:00 KRIV 071500Z 00000KT 10SM FEW008 SCT047 SCT065 BKN080 BKN090 10/09 A3004 RMK SLP172
 
KSBD - San Bernardino, California, USA
Distance from station: WNW 54mi, 86km
Updated: Tue, 07-Apr-2020 8:45am PDT
Overcast
Overcast
 Wind from calm
Wind: Calm
Temperature: 54°F , 12°C
Dew Point: 46°F , 8°C
Humidity: 77%
Barometer: 30.06 inHg , 1017.9 hPa
Clouds: Overcast
Visibility: 7 miles , 11 km
Cloud details: Mostly Cloudy 8500 ft
Overcast 11000 ft
2020/04/07 15:45 KSBD 071545Z 00000KT 7SM BKN085 OVC110 12/08 A3006
KRNM - Ramona, California, USA
Distance from station: SSW 60mi, 96km
Updated: Tue, 07-Apr-2020 7:53am PDT
Light rain, Overcast
Light rain, Overcast
 Wind from calm
Wind: Calm
Temperature: 50°F , 10°C
Dew Point: 48°F , 9°C
Humidity: 94%
Barometer: 30.04 inHg , 1017.3 hPa
Summary: Light Rain
Clouds: Overcast
Visibility: 10 miles , 16 km
Cloud details: Overcast 2700 ft
2020/04/07 14:53 KRNM 071453Z AUTO 00000KT 10SM -RA OVC027 10/09 A3004 RMK AO2 SLP168 P0000 60005 T01000094 51010
 
KRAL - Riverside, California, USA
Distance from station: W 62mi, 100km
Updated: Tue, 07-Apr-2020 7:53am PDT
Overcast
Overcast
 Wind from calm
Wind: Calm
Temperature: 52°F , 11°C
Dew Point: 48°F , 9°C
Humidity: 88%
Barometer: 30.05 inHg , 1017.6 hPa
Clouds: Overcast
Visibility: 8 miles , 13 km
Cloud details: Overcast 6000 ft
2020/04/07 14:53 KRAL 071453Z 00000KT 8SM OVC060 11/09 A3005 RMK AO2 SLP168 T01110094 53012
KOKB - Oceanside, California, USA
Distance from station: SW 68mi, 109km
Updated: Tue, 07-Apr-2020 8:52am PDT
Light rain, Mist, Overcast
Light rain, Mist, Overcast
 Wind from calm
Wind: Calm
Temperature: 57°F , 14°C
Dew Point: 55°F , 13°C
Humidity: 94%
Barometer: 30.05 inHg , 1017.6 hPa
Summary: Light rain, Mist
Clouds: Overcast
Visibility: 5 miles , 8 km
Cloud details: Partly Cloudy 4200 ft
Mostly Cloudy 4900 ft
Overcast 7500 ft
2020/04/07 15:52 KOKB 071552Z AUTO 00000KT 5SM -RA BR SCT042 BKN049 OVC075 14/13 A3005 RMK AO2 RAB19 SLP176 P0000 T01390133 $
 
KONT - Ontario, California, USA
Distance from station: WNW 71mi, 114km
Updated: Tue, 07-Apr-2020 7:53am PDT
Overcast
Overcast
 Wind from NE
Wind: NE 3 mph , 6 km/h
Temperature: 54°F , 12°C
Dew Point: 50°F , 10°C
Humidity: 88%
Barometer: 30.04 inHg , 1017.3 hPa
Clouds: Overcast
Visibility: 9 miles , 14 km
Cloud details: Few Clouds 2000 ft
Mostly Cloudy 6000 ft
Overcast 8500 ft
2020/04/07 14:53 KONT 071453Z 04003KT 9SM FEW020 BKN060 OVC085 12/10 A3004 RMK AO2 SLP173 60001 T01170100 51012
KNJK - El Centro Naf, California, USA
Distance from station: SSE 78mi, 126km
Updated: Tue, 07-Apr-2020 7:56am PDT

 
Temperature: 61°F , 16°C
Dew Point: 45°F , 7°C
Humidity: 55%
Barometer: 30.02 inHg , 1016.6 hPa
2020/04/07 14:56 KNJK 071456Z 16/07 A3002 RMK AO2 SLP182 T01560072 53018 $
 
KSEE - San Diego/Santee, California, USA
Distance from station: SSW 74mi, 120km
Updated: Tue, 07-Apr-2020 8:47am PDT
Light rain, Overcast
Light rain, Overcast
 Wind from calm
Wind: Calm
Temperature: 55°F , 13°C
Dew Point: 52°F , 11°C
Humidity: 88%
Barometer: 30.06 inHg , 1017.9 hPa
Summary: Light Rain
Clouds: Overcast
Visibility: 5 miles , 8 km
Cloud details: Few Clouds 900 ft
Overcast 2300 ft
2020/04/07 15:47 KSEE 071547Z 00000KT 5SM -RA FEW009 OVC023 13/11 A3006
KCNO - Chino, California, USA
Distance from station: W 72mi, 116km
Updated: Tue, 07-Apr-2020 7:53am PDT
Haze, Overcast
Haze, Overcast
 Wind from calm
Wind: Calm
Temperature: 55°F , 13°C
Dew Point: 50°F , 10°C
Humidity: 82%
Barometer: 30.07 inHg , 1018.3 hPa
Summary: Haze
Clouds: Overcast
Visibility: 5 miles , 8 km
Cloud details: Few Clouds 2000 ft
Overcast 9000 ft
2020/04/07 14:53 KCNO 071453Z 00000KT 5SM HZ FEW020 OVC090 13/10 A3007 RMK AO2 SLP179 60000 T01330100 53013

Metar display script from Saratoga-Weather.org